sensor_id;sensor_type;location;lat;lon;timestamp;temperature;humidity
32187;DHT22;18686;53.084;8.872;2024-03-23T00:52:41;7.30;99.90
32187;DHT22;18686;53.084;8.872;2024-03-23T00:55:07;7.30;99.90
32187;DHT22;18686;53.084;8.872;2024-03-23T00:57:35;7.30;99.90
32187;DHT22;18686;53.084;8.872;2024-03-23T01:00:02;7.30;99.90
32187;DHT22;18686;53.084;8.872;2024-03-23T01:02:31;7.20;99.90
32187;DHT22;18686;53.084;8.872;2024-03-23T01:04:58;7.20;99.90
32187;DHT22;18686;53.084;8.872;2024-03-23T01:07:25;7.20;99.90
32187;DHT22;18686;53.084;8.872;2024-03-23T01:09:53;7.20;99.90
32187;DHT22;18686;53.084;8.872;2024-03-23T01:12:21;7.10;99.90
32187;DHT22;18686;53.084;8.872;2024-03-23T01:14:48;7.10;99.90
32187;DHT22;18686;53.084;8.872;2024-03-23T01:17:15;7.10;99.90
32187;DHT22;18686;53.084;8.872;2024-03-23T01:19:41;7.10;99.90
32187;DHT22;18686;53.084;8.872;2024-03-23T01:22:08;7.10;99.90
32187;DHT22;18686;53.084;8.872;2024-03-23T01:24:35;7.10;99.90
32187;DHT22;18686;53.084;8.872;2024-03-23T01:27:04;7.00;99.90
32187;DHT22;18686;53.084;8.872;2024-03-23T01:29:31;7.10;99.90
32187;DHT22;18686;53.084;8.872;2024-03-23T01:31:58;7.00;99.90
32187;DHT22;18686;53.084;8.872;2024-03-23T01:34:24;7.00;99.90
32187;DHT22;18686;53.084;8.872;2024-03-23T01:36:51;7.00;99.90
32187;DHT22;18686;53.084;8.872;2024-03-23T01:39:18;7.00;99.90
32187;DHT22;18686;53.084;8.872;2024-03-23T01:41:45;7.00;99.90
32187;DHT22;18686;53.084;8.872;2024-03-23T01:44:12;7.00;99.90
32187;DHT22;18686;53.084;8.872;2024-03-23T01:46:41;7.00;99.90
32187;DHT22;18686;53.084;8.872;2024-03-23T01:49:08;7.00;99.90
32187;DHT22;18686;53.084;8.872;2024-03-23T01:51:36;7.00;99.90
32187;DHT22;18686;53.084;8.872;2024-03-23T01:54:03;7.00;99.90
32187;DHT22;18686;53.084;8.872;2024-03-23T01:56:32;7.00;99.90
32187;DHT22;18686;53.084;8.872;2024-03-23T01:59:00;7.00;99.90
32187;DHT22;18686;53.084;8.872;2024-03-23T02:01:29;7.00;99.90
32187;DHT22;18686;53.084;8.872;2024-03-23T02:03:55;7.00;99.90
32187;DHT22;18686;53.084;8.872;2024-03-23T02:06:24;7.00;99.90
32187;DHT22;18686;53.084;8.872;2024-03-23T02:08:50;7.00;99.90
32187;DHT22;18686;53.084;8.872;2024-03-23T02:11:18;6.90;99.90
32187;DHT22;18686;53.084;8.872;2024-03-23T02:13:44;7.00;99.90
32187;DHT22;18686;53.084;8.872;2024-03-23T02:16:12;6.90;99.90
32187;DHT22;18686;53.084;8.872;2024-03-23T02:18:40;6.90;99.90
32187;DHT22;18686;53.084;8.872;2024-03-23T02:21:08;6.90;99.90
32187;DHT22;18686;53.084;8.872;2024-03-23T02:23:35;6.90;99.90
32187;DHT22;18686;53.084;8.872;2024-03-23T02:26:05;6.90;99.90
32187;DHT22;18686;53.084;8.872;2024-03-23T02:28:31;6.90;99.90
32187;DHT22;18686;53.084;8.872;2024-03-23T02:30:59;6.90;99.90
32187;DHT22;18686;53.084;8.872;2024-03-23T02:33:27;6.90;99.90
32187;DHT22;18686;53.084;8.872;2024-03-23T02:35:56;6.90;99.90
32187;DHT22;18686;53.084;8.872;2024-03-23T02:38:22;6.90;99.90
32187;DHT22;18686;53.084;8.872;2024-03-23T02:40:51;6.90;99.90
32187;DHT22;18686;53.084;8.872;2024-03-23T02:43:17;6.90;99.90
32187;DHT22;18686;53.084;8.872;2024-03-23T02:45:44;6.90;99.90
32187;DHT22;18686;53.084;8.872;2024-03-23T02:48:10;6.90;99.90
32187;DHT22;18686;53.084;8.872;2024-03-23T02:50:38;6.90;99.90
32187;DHT22;18686;53.084;8.872;2024-03-23T02:53:04;6.90;99.90
32187;DHT22;18686;53.084;8.872;2024-03-23T02:55:31;6.90;99.90
32187;DHT22;18686;53.084;8.872;2024-03-23T02:57:59;6.90;99.90
32187;DHT22;18686;53.084;8.872;2024-03-23T03:00:28;6.90;99.90
32187;DHT22;18686;53.084;8.872;2024-03-23T03:02:54;6.90;99.90
32187;DHT22;18686;53.084;8.872;2024-03-23T03:05:21;6.80;99.90
32187;DHT22;18686;53.084;8.872;2024-03-23T03:07:47;6.80;99.90
32187;DHT22;18686;53.084;8.872;2024-03-23T03:10:15;6.90;99.90
32187;DHT22;18686;53.084;8.872;2024-03-23T03:12:41;6.90;99.90
32187;DHT22;18686;53.084;8.872;2024-03-23T03:15:10;6.90;99.90
32187;DHT22;18686;53.084;8.872;2024-03-23T03:17:36;6.80;99.90
32187;DHT22;18686;53.084;8.872;2024-03-23T03:20:04;6.80;99.90
32187;DHT22;18686;53.084;8.872;2024-03-23T03:22:30;6.80;99.90
32187;DHT22;18686;53.084;8.872;2024-03-23T03:24:58;6.80;99.90
32187;DHT22;18686;53.084;8.872;2024-03-23T03:27:25;6.80;99.90
32187;DHT22;18686;53.084;8.872;2024-03-23T03:29:53;6.80;99.90
32187;DHT22;18686;53.084;8.872;2024-03-23T03:32:20;6.80;99.90
32187;DHT22;18686;53.084;8.872;2024-03-23T03:34:47;6.80;99.90
32187;DHT22;18686;53.084;8.872;2024-03-23T03:37:15;6.80;99.90
32187;DHT22;18686;53.084;8.872;2024-03-23T03:39:43;6.80;99.90
32187;DHT22;18686;53.084;8.872;2024-03-23T03:42:09;6.70;99.90
32187;DHT22;18686;53.084;8.872;2024-03-23T03:44:36;6.70;99.90
32187;DHT22;18686;53.084;8.872;2024-03-23T03:47:03;6.70;99.90
32187;DHT22;18686;53.084;8.872;2024-03-23T03:49:32;6.70;99.90
32187;DHT22;18686;53.084;8.872;2024-03-23T03:51:58;6.70;99.90
32187;DHT22;18686;53.084;8.872;2024-03-23T03:54:27;6.70;99.90
32187;DHT22;18686;53.084;8.872;2024-03-23T03:56:53;6.60;99.90
32187;DHT22;18686;53.084;8.872;2024-03-23T03:59:20;6.60;99.90
32187;DHT22;18686;53.084;8.872;2024-03-23T04:01:46;6.50;99.90
32187;DHT22;18686;53.084;8.872;2024-03-23T04:04:14;6.50;99.90
32187;DHT22;18686;53.084;8.872;2024-03-23T04:06:44;6.50;99.90
32187;DHT22;18686;53.084;8.872;2024-03-23T04:09:11;6.50;99.90
32187;DHT22;18686;53.084;8.872;2024-03-23T04:11:37;6.50;99.90
32187;DHT22;18686;53.084;8.872;2024-03-23T04:14:04;6.40;99.90
32187;DHT22;18686;53.084;8.872;2024-03-23T04:16:34;6.40;99.90
32187;DHT22;18686;53.084;8.872;2024-03-23T04:19:02;6.40;99.90
32187;DHT22;18686;53.084;8.872;2024-03-23T04:21:28;6.40;99.90
32187;DHT22;18686;53.084;8.872;2024-03-23T04:23:57;6.40;99.90
32187;DHT22;18686;53.084;8.872;2024-03-23T04:26:23;6.40;99.90
32187;DHT22;18686;53.084;8.872;2024-03-23T04:28:50;6.40;99.90
32187;DHT22;18686;53.084;8.872;2024-03-23T04:31:16;6.40;99.90
32187;DHT22;18686;53.084;8.872;2024-03-23T04:33:43;6.40;99.90
32187;DHT22;18686;53.084;8.872;2024-03-23T04:36:10;6.30;99.90
32187;DHT22;18686;53.084;8.872;2024-03-23T04:38:37;6.30;99.90
32187;DHT22;18686;53.084;8.872;2024-03-23T04:41:06;6.30;99.90
32187;DHT22;18686;53.084;8.872;2024-03-23T04:43:33;6.30;99.90
32187;DHT22;18686;53.084;8.872;2024-03-23T04:46:01;6.30;99.90
32187;DHT22;18686;53.084;8.872;2024-03-23T04:48:28;6.30;99.90
32187;DHT22;18686;53.084;8.872;2024-03-23T04:50:55;6.30;99.90
32187;DHT22;18686;53.084;8.872;2024-03-23T04:53:24;6.30;99.90
32187;DHT22;18686;53.084;8.872;2024-03-23T04:55:55;6.30;99.90
32187;DHT22;18686;53.084;8.872;2024-03-23T04:58:22;6.30;99.90
32187;DHT22;18686;53.084;8.872;2024-03-23T05:00:53;6.30;99.90
32187;DHT22;18686;53.084;8.872;2024-03-23T05:03:21;6.30;99.90
32187;DHT22;18686;53.084;8.872;2024-03-23T05:05:48;6.30;99.90
32187;DHT22;18686;53.084;8.872;2024-03-23T05:08:15;6.30;99.90
32187;DHT22;18686;53.084;8.872;2024-03-23T05:10:42;6.30;99.90
32187;DHT22;18686;53.084;8.872;2024-03-23T05:13:09;6.30;99.90
32187;DHT22;18686;53.084;8.872;2024-03-23T05:15:38;6.20;99.90
32187;DHT22;18686;53.084;8.872;2024-03-23T05:18:05;6.20;99.90
32187;DHT22;18686;53.084;8.872;2024-03-23T05:20:32;6.20;99.90
32187;DHT22;18686;53.084;8.872;2024-03-23T05:22:59;6.20;99.90
32187;DHT22;18686;53.084;8.872;2024-03-23T05:25:26;6.20;99.90
32187;DHT22;18686;53.084;8.872;2024-03-23T05:27:52;6.20;99.90
32187;DHT22;18686;53.084;8.872;2024-03-23T05:30:19;6.10;99.90
32187;DHT22;18686;53.084;8.872;2024-03-23T05:32:47;6.10;99.90
32187;DHT22;18686;53.084;8.872;2024-03-23T05:35:14;6.10;99.90
32187;DHT22;18686;53.084;8.872;2024-03-23T05:37:40;6.10;99.90
32187;DHT22;18686;53.084;8.872;2024-03-23T05:40:08;6.00;99.90
32187;DHT22;18686;53.084;8.872;2024-03-23T05:42:35;6.00;99.90
32187;DHT22;18686;53.084;8.872;2024-03-23T05:45:03;6.00;99.90
32187;DHT22;18686;53.084;8.872;2024-03-23T05:47:32;5.90;99.90
32187;DHT22;18686;53.084;8.872;2024-03-23T05:50:00;5.90;99.90
32187;DHT22;18686;53.084;8.872;2024-03-23T05:52:27;5.80;99.90
32187;DHT22;18686;53.084;8.872;2024-03-23T05:54:55;5.80;99.90
32187;DHT22;18686;53.084;8.872;2024-03-23T05:57:21;5.80;99.90
32187;DHT22;18686;53.084;8.872;2024-03-23T05:59:48;5.70;99.90
32187;DHT22;18686;53.084;8.872;2024-03-23T06:02:14;5.70;99.90
32187;DHT22;18686;53.084;8.872;2024-03-23T06:04:41;5.70;99.90
32187;DHT22;18686;53.084;8.872;2024-03-23T06:07:09;5.70;99.90
32187;DHT22;18686;53.084;8.872;2024-03-23T06:09:40;5.60;99.90
32187;DHT22;18686;53.084;8.872;2024-03-23T06:12:08;5.60;99.90
32187;DHT22;18686;53.084;8.872;2024-03-23T06:14:36;5.60;99.90
32187;DHT22;18686;53.084;8.872;2024-03-23T06:17:02;5.60;99.90
32187;DHT22;18686;53.084;8.872;2024-03-23T06:19:29;5.60;99.90
32187;DHT22;18686;53.084;8.872;2024-03-23T06:21:55;5.70;99.90
32187;DHT22;18686;53.084;8.872;2024-03-23T06:24:24;5.80;99.90
32187;DHT22;18686;53.084;8.872;2024-03-23T06:26:50;5.90;99.90
32187;DHT22;18686;53.084;8.872;2024-03-23T06:29:18;6.10;99.90
32187;DHT22;18686;53.084;8.872;2024-03-23T06:31:53;6.30;99.90
32187;DHT22;18686;53.084;8.872;2024-03-23T06:34:20;6.50;99.90
32187;DHT22;18686;53.084;8.872;2024-03-23T06:36:48;6.70;99.90
32187;DHT22;18686;53.084;8.872;2024-03-23T06:39:15;6.90;99.90
32187;DHT22;18686;53.084;8.872;2024-03-23T06:41:45;7.00;99.90
32187;DHT22;18686;53.084;8.872;2024-03-23T06:44:18;7.20;99.90
32187;DHT22;18686;53.084;8.872;2024-03-23T06:46:44;7.50;99.90
32187;DHT22;18686;53.084;8.872;2024-03-23T06:49:12;7.70;99.90
32187;DHT22;18686;53.084;8.872;2024-03-23T06:51:38;7.90;99.90
32187;DHT22;18686;53.084;8.872;2024-03-23T06:54:05;8.10;99.90
32187;DHT22;18686;53.084;8.872;2024-03-23T06:56:31;8.30;99.90
32187;DHT22;18686;53.084;8.872;2024-03-23T06:59:00;8.50;99.90
32187;DHT22;18686;53.084;8.872;2024-03-23T07:01:27;8.60;99.90
32187;DHT22;18686;53.084;8.872;2024-03-23T07:03:54;8.80;99.90
32187;DHT22;18686;53.084;8.872;2024-03-23T07:06:21;9.00;99.90
32187;DHT22;18686;53.084;8.872;2024-03-23T07:08:48;9.20;99.90
32187;DHT22;18686;53.084;8.872;2024-03-23T07:11:18;9.50;99.90
32187;DHT22;18686;53.084;8.872;2024-03-23T07:13:46;9.80;99.90
32187;DHT22;18686;53.084;8.872;2024-03-23T07:16:14;10.00;99.90
32187;DHT22;18686;53.084;8.872;2024-03-23T07:18:42;10.30;99.90
32187;DHT22;18686;53.084;8.872;2024-03-23T07:21:08;10.50;99.90
32187;DHT22;18686;53.084;8.872;2024-03-23T07:23:35;10.80;99.90
32187;DHT22;18686;53.084;8.872;2024-03-23T07:26:03;10.90;99.90
32187;DHT22;18686;53.084;8.872;2024-03-23T07:28:31;11.10;99.90
32187;DHT22;18686;53.084;8.872;2024-03-23T07:31:08;11.10;99.90
32187;DHT22;18686;53.084;8.872;2024-03-23T07:33:37;11.30;99.90
32187;DHT22;18686;53.084;8.872;2024-03-23T07:36:04;11.40;99.90
32187;DHT22;18686;53.084;8.872;2024-03-23T07:38:32;11.70;99.90
32187;DHT22;18686;53.084;8.872;2024-03-23T07:41:05;11.90;99.90
32187;DHT22;18686;53.084;8.872;2024-03-23T07:43:32;12.10;99.90
32187;DHT22;18686;53.084;8.872;2024-03-23T07:45:59;12.40;99.90
32187;DHT22;18686;53.084;8.872;2024-03-23T07:48:27;12.60;99.90
32187;DHT22;18686;53.084;8.872;2024-03-23T07:51:04;12.80;99.90
32187;DHT22;18686;53.084;8.872;2024-03-23T07:53:32;12.90;99.90
32187;DHT22;18686;53.084;8.872;2024-03-23T07:55:59;13.00;99.90
32187;DHT22;18686;53.084;8.872;2024-03-23T07:58:26;13.20;99.90
32187;DHT22;18686;53.084;8.872;2024-03-23T08:00:53;13.50;99.90
32187;DHT22;18686;53.084;8.872;2024-03-23T08:03:20;13.60;99.90
32187;DHT22;18686;53.084;8.872;2024-03-23T08:05:47;13.60;99.90
32187;DHT22;18686;53.084;8.872;2024-03-23T08:08:15;13.60;99.90
32187;DHT22;18686;53.084;8.872;2024-03-23T08:10:51;13.60;99.90
32187;DHT22;18686;53.084;8.872;2024-03-23T08:13:19;13.50;99.90
32187;DHT22;18686;53.084;8.872;2024-03-23T08:15:45;13.50;99.90
32187;DHT22;18686;53.084;8.872;2024-03-23T08:18:13;13.60;99.90
32187;DHT22;18686;53.084;8.872;2024-03-23T08:20:41;13.80;99.80
32187;DHT22;18686;53.084;8.872;2024-03-23T08:23:09;13.90;98.70
32187;DHT22;18686;53.084;8.872;2024-03-23T08:25:36;14.20;96.90
32187;DHT22;18686;53.084;8.872;2024-03-23T08:28:04;14.40;95.80
32187;DHT22;18686;53.084;8.872;2024-03-23T08:30:30;14.40;93.80
32187;DHT22;18686;53.084;8.872;2024-03-23T08:32:57;14.50;93.80
32187;DHT22;18686;53.084;8.872;2024-03-23T08:35:23;14.60;92.70
32187;DHT22;18686;53.084;8.872;2024-03-23T08:37:50;14.70;93.30
32187;DHT22;18686;53.084;8.872;2024-03-23T08:40:17;15.00;90.70
32187;DHT22;18686;53.084;8.872;2024-03-23T08:42:45;15.20;88.70
32187;DHT22;18686;53.084;8.872;2024-03-23T08:45:12;15.40;84.00
32187;DHT22;18686;53.084;8.872;2024-03-23T08:47:39;15.50;81.00
32187;DHT22;18686;53.084;8.872;2024-03-23T08:50:05;15.50;78.50
32187;DHT22;18686;53.084;8.872;2024-03-23T08:52:33;15.40;79.40
32187;DHT22;18686;53.084;8.872;2024-03-23T08:54:59;15.30;74.60
32187;DHT22;18686;53.084;8.872;2024-03-23T08:57:27;15.00;77.00
32187;DHT22;18686;53.084;8.872;2024-03-23T08:59:54;14.80;79.20
32187;DHT22;18686;53.084;8.872;2024-03-23T09:02:22;14.90;75.60
32187;DHT22;18686;53.084;8.872;2024-03-23T09:04:48;15.00;74.20
32187;DHT22;18686;53.084;8.872;2024-03-23T09:07:15;15.30;73.50
32187;DHT22;18686;53.084;8.872;2024-03-23T09:09:43;15.50;68.80
32187;DHT22;18686;53.084;8.872;2024-03-23T09:12:10;15.80;68.30
32187;DHT22;18686;53.084;8.872;2024-03-23T09:14:36;16.30;66.40
32187;DHT22;18686;53.084;8.872;2024-03-23T09:17:05;16.40;64.60
32187;DHT22;18686;53.084;8.872;2024-03-23T09:19:31;16.10;63.10
32187;DHT22;18686;53.084;8.872;2024-03-23T09:21:58;15.90;64.20
32187;DHT22;18686;53.084;8.872;2024-03-23T09:24:25;15.90;63.90
32187;DHT22;18686;53.084;8.872;2024-03-23T09:26:52;16.20;61.80
32187;DHT22;18686;53.084;8.872;2024-03-23T09:29:18;16.50;61.90
32187;DHT22;18686;53.084;8.872;2024-03-23T09:31:45;16.90;58.80
32187;DHT22;18686;53.084;8.872;2024-03-23T09:34:13;17.10;58.00
32187;DHT22;18686;53.084;8.872;2024-03-23T09:36:41;17.10;56.60
32187;DHT22;18686;53.084;8.872;2024-03-23T09:39:07;16.70;56.20
32187;DHT22;18686;53.084;8.872;2024-03-23T09:41:35;16.20;56.00
32187;DHT22;18686;53.084;8.872;2024-03-23T09:44:01;15.70;56.90
32187;DHT22;18686;53.084;8.872;2024-03-23T09:46:28;15.10;60.50
32187;DHT22;18686;53.084;8.872;2024-03-23T09:49:00;14.70;60.40
32187;DHT22;18686;53.084;8.872;2024-03-23T09:51:31;14.30;62.60
32187;DHT22;18686;53.084;8.872;2024-03-23T09:53:57;14.40;63.10
32187;DHT22;18686;53.084;8.872;2024-03-23T09:56:25;14.90;62.80
32187;DHT22;18686;53.084;8.872;2024-03-23T09:58:51;15.60;62.00
32187;DHT22;18686;53.084;8.872;2024-03-23T10:01:18;16.00;60.20
32187;DHT22;18686;53.084;8.872;2024-03-23T10:03:45;16.10;58.10
32187;DHT22;18686;53.084;8.872;2024-03-23T10:06:12;16.00;58.30
32187;DHT22;18686;53.084;8.872;2024-03-23T10:08:41;16.00;58.40
32187;DHT22;18686;53.084;8.872;2024-03-23T10:11:14;16.00;60.00
32187;DHT22;18686;53.084;8.872;2024-03-23T10:13:43;16.20;58.40
32187;DHT22;18686;53.084;8.872;2024-03-23T10:16:10;16.30;58.60
32187;DHT22;18686;53.084;8.872;2024-03-23T10:18:38;16.40;57.30
32187;DHT22;18686;53.084;8.872;2024-03-23T10:21:08;16.50;57.40
32187;DHT22;18686;53.084;8.872;2024-03-23T10:23:37;16.80;56.10
32187;DHT22;18686;53.084;8.872;2024-03-23T10:26:19;17.00;55.30
32187;DHT22;18686;53.084;8.872;2024-03-23T10:28:59;17.10;53.50
32187;DHT22;18686;53.084;8.872;2024-03-23T10:31:27;17.10;53.80
32187;DHT22;18686;53.084;8.872;2024-03-23T10:33:54;16.80;54.30
32187;DHT22;18686;53.084;8.872;2024-03-23T10:36:21;16.60;55.60
32187;DHT22;18686;53.084;8.872;2024-03-23T10:38:51;16.50;55.70
32187;DHT22;18686;53.084;8.872;2024-03-23T10:41:19;16.90;56.00
32187;DHT22;18686;53.084;8.872;2024-03-23T10:43:47;17.10;53.40
32187;DHT22;18686;53.084;8.872;2024-03-23T10:46:14;17.10;54.50
32187;DHT22;18686;53.084;8.872;2024-03-23T10:48:41;17.80;55.00
32187;DHT22;18686;53.084;8.872;2024-03-23T10:51:10;19.10;53.80
32187;DHT22;18686;53.084;8.872;2024-03-23T10:53:37;20.90;51.20
32187;DHT22;18686;53.084;8.872;2024-03-23T10:56:05;23.00;45.80
32187;DHT22;18686;53.084;8.872;2024-03-23T10:58:37;24.00;40.50
32187;DHT22;18686;53.084;8.872;2024-03-23T11:01:04;24.10;38.80
32187;DHT22;18686;53.084;8.872;2024-03-23T11:03:33;23.40;38.20
32187;DHT22;18686;53.084;8.872;2024-03-23T11:06:00;22.60;40.70
32187;DHT22;18686;53.084;8.872;2024-03-23T11:08:31;21.50;41.80
32187;DHT22;18686;53.084;8.872;2024-03-23T11:11:28;20.80;42.50
32187;DHT22;18686;53.084;8.872;2024-03-23T11:13:59;22.00;43.90
32187;DHT22;18686;53.084;8.872;2024-03-23T11:16:26;23.50;42.00
32187;DHT22;18686;53.084;8.872;2024-03-23T11:19:34;24.30;39.50
32187;DHT22;18686;53.084;8.872;2024-03-23T11:22:03;24.20;36.60
32187;DHT22;18686;53.084;8.872;2024-03-23T11:24:30;23.50;37.40
32187;DHT22;18686;53.084;8.872;2024-03-23T11:26:57;22.20;38.80
32187;DHT22;18686;53.084;8.872;2024-03-23T11:29:27;21.10;40.10
32187;DHT22;18686;53.084;8.872;2024-03-23T11:31:56;21.30;42.90
32187;DHT22;18686;53.084;8.872;2024-03-23T11:34:24;22.50;41.90
32187;DHT22;18686;53.084;8.872;2024-03-23T11:36:50;24.30;39.00
32187;DHT22;18686;53.084;8.872;2024-03-23T11:39:29;25.90;37.90
32187;DHT22;18686;53.084;8.872;2024-03-23T11:41:56;26.10;35.70
32187;DHT22;18686;53.084;8.872;2024-03-23T11:44:26;25.60;36.10
32187;DHT22;18686;53.084;8.872;2024-03-23T11:46:52;24.20;36.70
32187;DHT22;18686;53.084;8.872;2024-03-23T11:49:21;23.60;38.20
32187;DHT22;18686;53.084;8.872;2024-03-23T11:51:48;23.00;37.40
32187;DHT22;18686;53.084;8.872;2024-03-23T11:54:15;22.30;39.10
32187;DHT22;18686;53.084;8.872;2024-03-23T11:56:54;22.30;40.30
32187;DHT22;18686;53.084;8.872;2024-03-23T11:59:33;22.90;39.60
32187;DHT22;18686;53.084;8.872;2024-03-23T12:02:00;23.80;37.10
32187;DHT22;18686;53.084;8.872;2024-03-23T12:04:27;23.70;37.10
32187;DHT22;18686;53.084;8.872;2024-03-23T12:07:09;23.10;36.80
32187;DHT22;18686;53.084;8.872;2024-03-23T12:09:37;23.10;37.70
32187;DHT22;18686;53.084;8.872;2024-03-23T12:12:08;24.40;36.60
32187;DHT22;18686;53.084;8.872;2024-03-23T12:14:37;25.40;34.30
32187;DHT22;18686;53.084;8.872;2024-03-23T12:17:11;24.90;34.40
32187;DHT22;18686;53.084;8.872;2024-03-23T12:19:38;23.80;34.70
32187;DHT22;18686;53.084;8.872;2024-03-23T12:22:04;22.10;39.50
32187;DHT22;18686;53.084;8.872;2024-03-23T12:24:33;20.20;44.40
32187;DHT22;18686;53.084;8.872;2024-03-23T12:27:01;18.50;47.70
32187;DHT22;18686;53.084;8.872;2024-03-23T12:29:31;17.10;49.50
32187;DHT22;18686;53.084;8.872;2024-03-23T12:32:01;15.60;51.90
32187;DHT22;18686;53.084;8.872;2024-03-23T12:34:29;14.50;54.50
32187;DHT22;18686;53.084;8.872;2024-03-23T12:36:56;13.60;57.50
32187;DHT22;18686;53.084;8.872;2024-03-23T12:39:23;12.80;61.50
32187;DHT22;18686;53.084;8.872;2024-03-23T12:41:50;12.10;65.10
32187;DHT22;18686;53.084;8.872;2024-03-23T12:44:18;11.50;63.90
32187;DHT22;18686;53.084;8.872;2024-03-23T12:46:45;11.10;67.10
32187;DHT22;18686;53.084;8.872;2024-03-23T12:49:13;10.70;67.30
32187;DHT22;18686;53.084;8.872;2024-03-23T12:51:52;10.50;69.40
32187;DHT22;18686;53.084;8.872;2024-03-23T12:54:20;10.40;71.80
32187;DHT22;18686;53.084;8.872;2024-03-23T12:56:46;11.00;74.60
32187;DHT22;18686;53.084;8.872;2024-03-23T12:59:14;13.00;71.80
32187;DHT22;18686;53.084;8.872;2024-03-23T13:01:40;15.40;63.70
32187;DHT22;18686;53.084;8.872;2024-03-23T13:04:07;16.90;54.80
32187;DHT22;18686;53.084;8.872;2024-03-23T13:06:35;17.30;49.70
32187;DHT22;18686;53.084;8.872;2024-03-23T13:09:02;17.20;49.50
32187;DHT22;18686;53.084;8.872;2024-03-23T13:11:29;17.70;49.20
32187;DHT22;18686;53.084;8.872;2024-03-23T13:13:56;18.40;48.60
32187;DHT22;18686;53.084;8.872;2024-03-23T13:16:22;19.60;47.30
32187;DHT22;18686;53.084;8.872;2024-03-23T13:18:50;21.60;44.60
32187;DHT22;18686;53.084;8.872;2024-03-23T13:21:16;24.30;39.80
32187;DHT22;18686;53.084;8.872;2024-03-23T13:23:48;26.90;37.50
32187;DHT22;18686;53.084;8.872;2024-03-23T13:26:17;28.70;34.20
32187;DHT22;18686;53.084;8.872;2024-03-23T13:28:44;30.30;31.10
32187;DHT22;18686;53.084;8.872;2024-03-23T13:31:10;31.00;30.10
32187;DHT22;18686;53.084;8.872;2024-03-23T13:33:37;31.40;29.00
32187;DHT22;18686;53.084;8.872;2024-03-23T13:36:04;32.10;28.50
32187;DHT22;18686;53.084;8.872;2024-03-23T13:38:32;31.40;27.70
32187;DHT22;18686;53.084;8.872;2024-03-23T13:41:00;29.30;28.60
32187;DHT22;18686;53.084;8.872;2024-03-23T13:43:30;26.60;32.50
32187;DHT22;18686;53.084;8.872;2024-03-23T13:45:57;23.60;46.00
32187;DHT22;18686;53.084;8.872;2024-03-23T13:48:26;20.60;50.10
32187;DHT22;18686;53.084;8.872;2024-03-23T13:50:57;18.00;56.30
32187;DHT22;18686;53.084;8.872;2024-03-23T13:53:24;15.80;65.90
32187;DHT22;18686;53.084;8.872;2024-03-23T13:55:50;14.30;79.30
32187;DHT22;18686;53.084;8.872;2024-03-23T13:58:19;13.10;95.60
32187;DHT22;18686;53.084;8.872;2024-03-23T14:00:46;12.20;99.90
32187;DHT22;18686;53.084;8.872;2024-03-23T14:03:14;11.40;99.90
32187;DHT22;18686;53.084;8.872;2024-03-23T14:05:40;10.90;99.90
32187;DHT22;18686;53.084;8.872;2024-03-23T14:08:09;10.80;99.90
32187;DHT22;18686;53.084;8.872;2024-03-23T14:10:36;10.90;99.90
32187;DHT22;18686;53.084;8.872;2024-03-23T14:13:07;10.90;99.90
32187;DHT22;18686;53.084;8.872;2024-03-23T14:15:34;10.80;99.90
32187;DHT22;18686;53.084;8.872;2024-03-23T14:18:04;10.70;99.90
32187;DHT22;18686;53.084;8.872;2024-03-23T14:20:30;10.50;99.90
32187;DHT22;18686;53.084;8.872;2024-03-23T14:22:57;10.60;99.90
32187;DHT22;18686;53.084;8.872;2024-03-23T14:25:24;10.60;99.90
32187;DHT22;18686;53.084;8.872;2024-03-23T14:27:54;10.70;99.90
32187;DHT22;18686;53.084;8.872;2024-03-23T14:30:20;10.80;99.90
32187;DHT22;18686;53.084;8.872;2024-03-23T14:32:49;10.90;99.90
32187;DHT22;18686;53.084;8.872;2024-03-23T14:35:18;10.70;99.90
32187;DHT22;18686;53.084;8.872;2024-03-23T14:37:46;10.40;99.90
32187;DHT22;18686;53.084;8.872;2024-03-23T14:40:13;10.40;99.90
32187;DHT22;18686;53.084;8.872;2024-03-23T14:42:40;10.30;99.90
32187;DHT22;18686;53.084;8.872;2024-03-23T14:45:08;10.10;99.90
32187;DHT22;18686;53.084;8.872;2024-03-23T14:47:35;10.10;99.90
32187;DHT22;18686;53.084;8.872;2024-03-23T14:50:03;10.00;99.90
32187;DHT22;18686;53.084;8.872;2024-03-23T14:52:30;10.00;99.90
32187;DHT22;18686;53.084;8.872;2024-03-23T14:54:56;10.30;99.90
32187;DHT22;18686;53.084;8.872;2024-03-23T14:57:24;10.40;99.90
32187;DHT22;18686;53.084;8.872;2024-03-23T14:59:50;10.50;99.90
32187;DHT22;18686;53.084;8.872;2024-03-23T15:02:18;10.40;99.90
32187;DHT22;18686;53.084;8.872;2024-03-23T15:04:44;10.40;99.90
32187;DHT22;18686;53.084;8.872;2024-03-23T15:07:12;10.20;99.90
32187;DHT22;18686;53.084;8.872;2024-03-23T15:09:39;10.00;99.90
32187;DHT22;18686;53.084;8.872;2024-03-23T15:12:06;9.70;99.90
32187;DHT22;18686;53.084;8.872;2024-03-23T15:14:33;9.70;99.90
32187;DHT22;18686;53.084;8.872;2024-03-23T15:17:02;9.70;99.90
32187;DHT22;18686;53.084;8.872;2024-03-23T15:19:33;9.70;99.90
32187;DHT22;18686;53.084;8.872;2024-03-23T15:22:00;9.60;99.90
32187;DHT22;18686;53.084;8.872;2024-03-23T15:24:27;9.60;99.90
32187;DHT22;18686;53.084;8.872;2024-03-23T15:26:55;9.70;99.90
32187;DHT22;18686;53.084;8.872;2024-03-23T15:29:21;9.70;99.90
32187;DHT22;18686;53.084;8.872;2024-03-23T15:31:50;9.70;99.90
32187;DHT22;18686;53.084;8.872;2024-03-23T15:34:18;9.70;99.90
32187;DHT22;18686;53.084;8.872;2024-03-23T15:36:47;9.60;99.90
32187;DHT22;18686;53.084;8.872;2024-03-23T15:39:13;9.60;99.90
32187;DHT22;18686;53.084;8.872;2024-03-23T15:41:44;9.50;99.90
32187;DHT22;18686;53.084;8.872;2024-03-23T15:44:10;9.30;99.90
32187;DHT22;18686;53.084;8.872;2024-03-23T15:46:37;9.10;99.90
32187;DHT22;18686;53.084;8.872;2024-03-23T15:49:03;8.90;99.90
32187;DHT22;18686;53.084;8.872;2024-03-23T15:51:31;8.70;99.90
32187;DHT22;18686;53.084;8.872;2024-03-23T15:53:59;8.50;99.90
32187;DHT22;18686;53.084;8.872;2024-03-23T15:56:26;8.30;99.90
32187;DHT22;18686;53.084;8.872;2024-03-23T15:58:54;8.20;99.90
32187;DHT22;18686;53.084;8.872;2024-03-23T16:01:21;8.00;99.90
32187;DHT22;18686;53.084;8.872;2024-03-23T16:03:48;7.90;99.90
32187;DHT22;18686;53.084;8.872;2024-03-23T16:06:15;7.80;99.90
32187;DHT22;18686;53.084;8.872;2024-03-23T16:08:41;7.80;99.90
32187;DHT22;18686;53.084;8.872;2024-03-23T16:11:09;7.80;99.90
32187;DHT22;18686;53.084;8.872;2024-03-23T16:13:36;7.90;99.90
32187;DHT22;18686;53.084;8.872;2024-03-23T16:16:05;8.10;99.90
32187;DHT22;18686;53.084;8.872;2024-03-23T16:18:33;8.20;99.90
32187;DHT22;18686;53.084;8.872;2024-03-23T16:21:02;8.20;99.90
32187;DHT22;18686;53.084;8.872;2024-03-23T16:23:28;8.30;99.90
32187;DHT22;18686;53.084;8.872;2024-03-23T16:25:56;8.20;99.90
32187;DHT22;18686;53.084;8.872;2024-03-23T16:28:24;8.10;99.90
32187;DHT22;18686;53.084;8.872;2024-03-23T16:30:55;8.10;99.90
32187;DHT22;18686;53.084;8.872;2024-03-23T16:33:23;8.00;99.90